עמוד ראשי
METAR-TAF:

METAR-TAF

שדות תעופה :

Huatulco, מקסיקו

קו רוחב: 15-47N, קו אורך: 096-16W, גובה: 143מטר

תצפית מזג אוויר נוכחית

הדו"ח נערך לפני 24דקות, בשעה 12:44 UTC
רוח רגועה
טמפרטורת 27 צלסיוס
לחות 79%
לחץ 1012 hPa
ראות: 12.9קילומטר
שמיים נקיים

METAR: MMBT 271244Z 00000KT 8SM SKC 27/23 A2989 RMK RTS

זמן: 08:08 (13:08 UTC)

תחזית

הדו"ח נערך לפני 8 שעות ו 46דקות, בשעה 04:22 UTC
תחזית בתוקף מ 27 ב 06 UTC עד 28 ב 06 UTC
רוח קשר מכיוון צפון
ראות: 10קילומטר
עננים פזורים בגובה 2000רגל
יעשה מ
27 ב 12 UTC עד 27 ב 14 UTC
עננים פזורים בגובה 5000רגל
מ 27 ב 1800UTC
רוח 15קשר מכיוון דרום-מערב
ראות: 10קילומטר
שמיים נקיים
מ 28 ב 0000UTC
רוח 5קשר מכיוון מערב/דרום-מערב
ראות: 10קילומטר
שמיים נקיים

TAF: MMBT 270422Z 2706/2806 00000KT P6SM SCT020 BECMG 2712/2714 SCT050 FM271800 22015KT P6SM SKC FM280000 24005KT P6SM SKC

תצפיות ותחזיות מזג אוויר לגבי יותר מ- 4,000 שדות תעופה ברחבי העולם. דוחות METAR ו- TAF.

התחנות הזמינות מסומנות בנקודות צהובות ואדומות על גבי המפה.

העבר את העכבר לנקודה הצבעונית על מנת לראות את שם התחנה.

לאחר מכן, לחץ כדי לראות את תוכן ואת תחזיות מזג האוויר.

כדי לשנות את המפה: לחץ על הכפתורים הירוקים עם הפלוס השחור כדי להתקרב; על הכפתור הירוק עם המקף כדי להתרחק; או בחיצים הירוקים למפות סמוכות.


METAR-TAF: